sensor_id;sensor_type;location;lat;lon;timestamp;temperature;humidity
2030;DHT22;1020;48.854;8.830;2023-04-25T00:00:50;6.90;99.90
2030;DHT22;1020;48.854;8.830;2023-04-25T00:03:19;6.90;99.90
2030;DHT22;1020;48.854;8.830;2023-04-25T00:05:46;6.90;99.90
2030;DHT22;1020;48.854;8.830;2023-04-25T00:08:14;6.90;99.90
2030;DHT22;1020;48.854;8.830;2023-04-25T00:10:41;7.00;99.90
2030;DHT22;1020;48.854;8.830;2023-04-25T00:13:08;6.90;99.90
2030;DHT22;1020;48.854;8.830;2023-04-25T00:15:36;6.90;99.90
2030;DHT22;1020;48.854;8.830;2023-04-25T00:18:04;6.90;99.90
2030;DHT22;1020;48.854;8.830;2023-04-25T00:20:31;6.80;99.90
2030;DHT22;1020;48.854;8.830;2023-04-25T00:22:58;6.80;99.90
2030;DHT22;1020;48.854;8.830;2023-04-25T00:25:26;6.80;99.90
2030;DHT22;1020;48.854;8.830;2023-04-25T00:27:53;6.80;99.90
2030;DHT22;1020;48.854;8.830;2023-04-25T00:30:20;6.80;99.90
2030;DHT22;1020;48.854;8.830;2023-04-25T00:32:46;6.80;99.90
2030;DHT22;1020;48.854;8.830;2023-04-25T00:35:14;6.80;99.90
2030;DHT22;1020;48.854;8.830;2023-04-25T00:37:41;6.80;99.90
2030;DHT22;1020;48.854;8.830;2023-04-25T00:40:08;6.70;99.90
2030;DHT22;1020;48.854;8.830;2023-04-25T00:42:37;6.70;99.90
2030;DHT22;1020;48.854;8.830;2023-04-25T00:45:05;6.70;99.90
2030;DHT22;1020;48.854;8.830;2023-04-25T00:47:33;6.70;99.90
2030;DHT22;1020;48.854;8.830;2023-04-25T00:50:01;6.70;99.90
2030;DHT22;1020;48.854;8.830;2023-04-25T00:52:28;6.70;99.90
2030;DHT22;1020;48.854;8.830;2023-04-25T00:54:55;6.80;99.90
2030;DHT22;1020;48.854;8.830;2023-04-25T00:57:22;6.80;93.90
2030;DHT22;1020;48.854;8.830;2023-04-25T00:59:51;6.80;99.90
2030;DHT22;1020;48.854;8.830;2023-04-25T01:02:18;6.80;99.90
2030;DHT22;1020;48.854;8.830;2023-04-25T01:04:46;6.80;99.90
2030;DHT22;1020;48.854;8.830;2023-04-25T01:07:13;6.80;99.90
2030;DHT22;1020;48.854;8.830;2023-04-25T01:09:41;6.70;99.90
2030;DHT22;1020;48.854;8.830;2023-04-25T01:12:08;6.80;99.90
2030;DHT22;1020;48.854;8.830;2023-04-25T01:14:34;6.80;99.90
2030;DHT22;1020;48.854;8.830;2023-04-25T01:17:02;6.80;99.90
2030;DHT22;1020;48.854;8.830;2023-04-25T01:19:29;6.80;99.90
2030;DHT22;1020;48.854;8.830;2023-04-25T01:21:58;6.80;99.90
2030;DHT22;1020;48.854;8.830;2023-04-25T01:24:25;6.80;99.90
2030;DHT22;1020;48.854;8.830;2023-04-25T01:26:52;6.80;99.90
2030;DHT22;1020;48.854;8.830;2023-04-25T01:29:23;6.80;99.90
2030;DHT22;1020;48.854;8.830;2023-04-25T01:31:51;6.90;99.90
2030;DHT22;1020;48.854;8.830;2023-04-25T01:34:18;6.90;99.90
2030;DHT22;1020;48.854;8.830;2023-04-25T01:36:45;6.90;99.90
2030;DHT22;1020;48.854;8.830;2023-04-25T01:39:14;6.90;99.90
2030;DHT22;1020;48.854;8.830;2023-04-25T01:41:41;6.80;99.90
2030;DHT22;1020;48.854;8.830;2023-04-25T01:44:09;6.80;99.90
2030;DHT22;1020;48.854;8.830;2023-04-25T01:46:35;6.80;99.90
2030;DHT22;1020;48.854;8.830;2023-04-25T01:49:02;6.80;99.90
2030;DHT22;1020;48.854;8.830;2023-04-25T01:51:30;6.70;99.90
2030;DHT22;1020;48.854;8.830;2023-04-25T01:53:57;6.70;99.90
2030;DHT22;1020;48.854;8.830;2023-04-25T01:56:29;5.60;99.90
2030;DHT22;1020;48.854;8.830;2023-04-25T01:58:56;6.60;99.90
2030;DHT22;1020;48.854;8.830;2023-04-25T02:01:23;6.60;99.90
2030;DHT22;1020;48.854;8.830;2023-04-25T02:03:49;6.60;99.90
2030;DHT22;1020;48.854;8.830;2023-04-25T02:06:16;6.60;99.90
2030;DHT22;1020;48.854;8.830;2023-04-25T02:08:43;6.60;99.90
2030;DHT22;1020;48.854;8.830;2023-04-25T02:11:09;6.50;99.90
2030;DHT22;1020;48.854;8.830;2023-04-25T02:13:38;6.60;99.90
2030;DHT22;1020;48.854;8.830;2023-04-25T02:16:05;6.50;99.90
2030;DHT22;1020;48.854;8.830;2023-04-25T02:18:32;6.50;99.90
2030;DHT22;1020;48.854;8.830;2023-04-25T02:20:59;6.60;99.90
2030;DHT22;1020;48.854;8.830;2023-04-25T02:23:26;6.60;99.90
2030;DHT22;1020;48.854;8.830;2023-04-25T02:25:53;6.60;99.90
2030;DHT22;1020;48.854;8.830;2023-04-25T02:28:20;6.60;99.90
2030;DHT22;1020;48.854;8.830;2023-04-25T02:30:48;6.60;99.90
2030;DHT22;1020;48.854;8.830;2023-04-25T02:33:15;6.60;99.90
2030;DHT22;1020;48.854;8.830;2023-04-25T02:35:42;6.60;99.90
2030;DHT22;1020;48.854;8.830;2023-04-25T02:38:09;6.60;99.90
2030;DHT22;1020;48.854;8.830;2023-04-25T02:40:36;6.60;99.90
2030;DHT22;1020;48.854;8.830;2023-04-25T02:43:02;6.50;99.90
2030;DHT22;1020;48.854;8.830;2023-04-25T02:45:29;6.50;99.90
2030;DHT22;1020;48.854;8.830;2023-04-25T02:47:57;6.50;99.90
2030;DHT22;1020;48.854;8.830;2023-04-25T02:50:24;6.50;99.90
2030;DHT22;1020;48.854;8.830;2023-04-25T02:52:51;6.50;99.90
2030;DHT22;1020;48.854;8.830;2023-04-25T02:55:18;6.40;99.90
2030;DHT22;1020;48.854;8.830;2023-04-25T02:57:45;6.30;99.90
2030;DHT22;1020;48.854;8.830;2023-04-25T03:00:12;6.20;99.90
2030;DHT22;1020;48.854;8.830;2023-04-25T03:02:40;6.20;99.90
2030;DHT22;1020;48.854;8.830;2023-04-25T03:05:08;6.20;99.90
2030;DHT22;1020;48.854;8.830;2023-04-25T03:07:35;6.20;99.90
2030;DHT22;1020;48.854;8.830;2023-04-25T03:10:02;6.10;99.90
2030;DHT22;1020;48.854;8.830;2023-04-25T03:12:28;6.10;99.90
2030;DHT22;1020;48.854;8.830;2023-04-25T03:14:55;6.10;99.90
2030;DHT22;1020;48.854;8.830;2023-04-25T03:17:22;6.10;99.90
2030;DHT22;1020;48.854;8.830;2023-04-25T03:19:48;6.00;99.90
2030;DHT22;1020;48.854;8.830;2023-04-25T03:22:17;6.10;99.90
2030;DHT22;1020;48.854;8.830;2023-04-25T03:24:43;6.10;99.90
2030;DHT22;1020;48.854;8.830;2023-04-25T03:27:10;6.10;99.90
2030;DHT22;1020;48.854;8.830;2023-04-25T03:29:37;4.50;99.90
2030;DHT22;1020;48.854;8.830;2023-04-25T03:32:04;6.10;99.90
2030;DHT22;1020;48.854;8.830;2023-04-25T03:34:31;6.20;99.90
2030;DHT22;1020;48.854;8.830;2023-04-25T03:36:57;6.20;99.90
2030;DHT22;1020;48.854;8.830;2023-04-25T03:39:25;6.20;99.90
2030;DHT22;1020;48.854;8.830;2023-04-25T03:41:52;6.20;99.90
2030;DHT22;1020;48.854;8.830;2023-04-25T03:44:19;6.20;99.90
2030;DHT22;1020;48.854;8.830;2023-04-25T03:46:45;6.20;99.90
2030;DHT22;1020;48.854;8.830;2023-04-25T03:49:13;6.20;99.90
2030;DHT22;1020;48.854;8.830;2023-04-25T03:51:39;6.20;99.90
2030;DHT22;1020;48.854;8.830;2023-04-25T03:54:06;6.20;99.90
2030;DHT22;1020;48.854;8.830;2023-04-25T03:56:35;6.20;99.90
2030;DHT22;1020;48.854;8.830;2023-04-25T03:59:01;6.20;99.90
2030;DHT22;1020;48.854;8.830;2023-04-25T04:01:28;6.20;99.90
2030;DHT22;1020;48.854;8.830;2023-04-25T04:03:55;6.20;99.90
2030;DHT22;1020;48.854;8.830;2023-04-25T04:06:21;6.30;99.90
2030;DHT22;1020;48.854;8.830;2023-04-25T04:08:48;6.30;99.90
2030;DHT22;1020;48.854;8.830;2023-04-25T04:11:15;6.30;99.90
2030;DHT22;1020;48.854;8.830;2023-04-25T04:13:43;6.20;99.90
2030;DHT22;1020;48.854;8.830;2023-04-25T04:16:10;6.30;99.90
2030;DHT22;1020;48.854;8.830;2023-04-25T04:18:37;6.20;99.90
2030;DHT22;1020;48.854;8.830;2023-04-25T04:21:03;6.30;99.90
2030;DHT22;1020;48.854;8.830;2023-04-25T04:23:30;6.40;99.90
2030;DHT22;1020;48.854;8.830;2023-04-25T04:25:57;6.40;99.90
2030;DHT22;1020;48.854;8.830;2023-04-25T04:28:24;6.40;99.90
2030;DHT22;1020;48.854;8.830;2023-04-25T04:30:52;6.40;99.90
2030;DHT22;1020;48.854;8.830;2023-04-25T04:33:18;6.50;99.90
2030;DHT22;1020;48.854;8.830;2023-04-25T04:35:46;6.40;99.90
2030;DHT22;1020;48.854;8.830;2023-04-25T04:38:14;6.40;99.90
2030;DHT22;1020;48.854;8.830;2023-04-25T04:40:41;6.40;99.90
2030;DHT22;1020;48.854;8.830;2023-04-25T04:43:08;6.40;99.90
2030;DHT22;1020;48.854;8.830;2023-04-25T04:45:35;6.30;99.90
2030;DHT22;1020;48.854;8.830;2023-04-25T04:48:05;6.20;99.90
2030;DHT22;1020;48.854;8.830;2023-04-25T04:50:32;6.10;99.90
2030;DHT22;1020;48.854;8.830;2023-04-25T04:52:59;6.00;99.90
2030;DHT22;1020;48.854;8.830;2023-04-25T04:55:26;5.90;99.90
2030;DHT22;1020;48.854;8.830;2023-04-25T04:57:53;5.90;99.90
2030;DHT22;1020;48.854;8.830;2023-04-25T05:00:19;5.80;99.90
2030;DHT22;1020;48.854;8.830;2023-04-25T05:02:47;5.70;99.90
2030;DHT22;1020;48.854;8.830;2023-04-25T05:05:15;5.60;99.90
2030;DHT22;1020;48.854;8.830;2023-04-25T05:07:42;5.60;99.90
2030;DHT22;1020;48.854;8.830;2023-04-25T05:10:10;5.60;99.90
2030;DHT22;1020;48.854;8.830;2023-04-25T05:12:37;5.60;99.90
2030;DHT22;1020;48.854;8.830;2023-04-25T05:15:04;5.60;99.90
2030;DHT22;1020;48.854;8.830;2023-04-25T05:17:31;5.70;99.90
2030;DHT22;1020;48.854;8.830;2023-04-25T05:19:58;5.80;99.90
2030;DHT22;1020;48.854;8.830;2023-04-25T05:22:26;5.80;99.90
2030;DHT22;1020;48.854;8.830;2023-04-25T05:24:53;5.90;99.90
2030;DHT22;1020;48.854;8.830;2023-04-25T05:27:20;5.80;99.90
2030;DHT22;1020;48.854;8.830;2023-04-25T05:29:46;5.90;99.90
2030;DHT22;1020;48.854;8.830;2023-04-25T05:32:13;5.90;99.90
2030;DHT22;1020;48.854;8.830;2023-04-25T05:34:40;5.90;99.90
2030;DHT22;1020;48.854;8.830;2023-04-25T05:37:07;5.90;99.90
2030;DHT22;1020;48.854;8.830;2023-04-25T05:39:35;6.10;99.90
2030;DHT22;1020;48.854;8.830;2023-04-25T05:42:02;6.20;99.90
2030;DHT22;1020;48.854;8.830;2023-04-25T05:44:29;6.30;99.90
2030;DHT22;1020;48.854;8.830;2023-04-25T05:46:56;6.30;99.90
2030;DHT22;1020;48.854;8.830;2023-04-25T05:49:23;6.30;99.90
2030;DHT22;1020;48.854;8.830;2023-04-25T05:51:50;6.30;99.90
2030;DHT22;1020;48.854;8.830;2023-04-25T05:54:16;6.30;99.90
2030;DHT22;1020;48.854;8.830;2023-04-25T05:56:45;6.40;99.90
2030;DHT22;1020;48.854;8.830;2023-04-25T05:59:11;6.30;99.90
2030;DHT22;1020;48.854;8.830;2023-04-25T06:01:38;6.20;99.90
2030;DHT22;1020;48.854;8.830;2023-04-25T06:04:05;6.30;99.90
2030;DHT22;1020;48.854;8.830;2023-04-25T06:06:32;6.30;99.90
2030;DHT22;1020;48.854;8.830;2023-04-25T06:08:59;6.30;99.90
2030;DHT22;1020;48.854;8.830;2023-04-25T06:11:25;6.10;99.90
2030;DHT22;1020;48.854;8.830;2023-04-25T06:13:54;6.20;99.90
2030;DHT22;1020;48.854;8.830;2023-04-25T06:16:20;6.20;99.90
2030;DHT22;1020;48.854;8.830;2023-04-25T06:18:47;6.30;99.90
2030;DHT22;1020;48.854;8.830;2023-04-25T06:21:14;6.30;99.90
2030;DHT22;1020;48.854;8.830;2023-04-25T06:23:40;6.50;99.90
2030;DHT22;1020;48.854;8.830;2023-04-25T06:26:07;6.50;99.90
2030;DHT22;1020;48.854;8.830;2023-04-25T06:28:34;6.60;99.90
2030;DHT22;1020;48.854;8.830;2023-04-25T06:31:02;4.20;99.90
2030;DHT22;1020;48.854;8.830;2023-04-25T06:33:29;6.80;99.90
2030;DHT22;1020;48.854;8.830;2023-04-25T06:35:55;6.80;99.90
2030;DHT22;1020;48.854;8.830;2023-04-25T06:38:22;6.80;99.90
2030;DHT22;1020;48.854;8.830;2023-04-25T06:40:49;6.80;99.90
2030;DHT22;1020;48.854;8.830;2023-04-25T06:43:16;7.00;99.90
2030;DHT22;1020;48.854;8.830;2023-04-25T06:45:43;7.00;99.90
2030;DHT22;1020;48.854;8.830;2023-04-25T06:48:11;7.10;99.90
2030;DHT22;1020;48.854;8.830;2023-04-25T06:50:38;7.00;99.90
2030;DHT22;1020;48.854;8.830;2023-04-25T06:53:04;7.10;99.90
2030;DHT22;1020;48.854;8.830;2023-04-25T06:55:31;7.10;99.90
2030;DHT22;1020;48.854;8.830;2023-04-25T06:57:58;7.20;99.90
2030;DHT22;1020;48.854;8.830;2023-04-25T07:00:25;7.10;99.90
2030;DHT22;1020;48.854;8.830;2023-04-25T07:02:53;7.10;99.90
2030;DHT22;1020;48.854;8.830;2023-04-25T07:05:21;7.00;99.90
2030;DHT22;1020;48.854;8.830;2023-04-25T07:07:48;7.10;99.90
2030;DHT22;1020;48.854;8.830;2023-04-25T07:10:15;7.20;99.90
2030;DHT22;1020;48.854;8.830;2023-04-25T07:12:42;7.20;99.90
2030;DHT22;1020;48.854;8.830;2023-04-25T07:15:09;7.10;99.90
2030;DHT22;1020;48.854;8.830;2023-04-25T07:17:37;7.00;99.90
2030;DHT22;1020;48.854;8.830;2023-04-25T07:20:04;7.10;99.90
2030;DHT22;1020;48.854;8.830;2023-04-25T07:22:34;7.00;99.90
2030;DHT22;1020;48.854;8.830;2023-04-25T07:25:01;6.90;99.90
2030;DHT22;1020;48.854;8.830;2023-04-25T07:27:29;6.80;99.90
2030;DHT22;1020;48.854;8.830;2023-04-25T07:29:56;6.80;99.90
2030;DHT22;1020;48.854;8.830;2023-04-25T07:32:23;6.80;99.90
2030;DHT22;1020;48.854;8.830;2023-04-25T07:34:50;6.90;99.90
2030;DHT22;1020;48.854;8.830;2023-04-25T07:37:16;6.80;99.90
2030;DHT22;1020;48.854;8.830;2023-04-25T07:39:45;6.80;99.90
2030;DHT22;1020;48.854;8.830;2023-04-25T07:42:12;6.90;99.90
2030;DHT22;1020;48.854;8.830;2023-04-25T07:44:39;6.90;99.90
2030;DHT22;1020;48.854;8.830;2023-04-25T07:47:06;6.90;99.90
2030;DHT22;1020;48.854;8.830;2023-04-25T07:49:33;6.90;99.90
2030;DHT22;1020;48.854;8.830;2023-04-25T07:52:01;6.80;99.90
2030;DHT22;1020;48.854;8.830;2023-04-25T07:54:28;6.80;99.90
2030;DHT22;1020;48.854;8.830;2023-04-25T07:56:56;6.90;99.90
2030;DHT22;1020;48.854;8.830;2023-04-25T07:59:23;7.00;99.90
2030;DHT22;1020;48.854;8.830;2023-04-25T08:01:50;6.90;99.90
2030;DHT22;1020;48.854;8.830;2023-04-25T08:04:17;7.00;99.90
2030;DHT22;1020;48.854;8.830;2023-04-25T08:06:44;7.00;99.90
2030;DHT22;1020;48.854;8.830;2023-04-25T08:09:11;7.00;99.90
2030;DHT22;1020;48.854;8.830;2023-04-25T08:11:38;7.00;99.90
2030;DHT22;1020;48.854;8.830;2023-04-25T08:14:06;7.00;99.90
2030;DHT22;1020;48.854;8.830;2023-04-25T08:16:33;7.00;99.90
2030;DHT22;1020;48.854;8.830;2023-04-25T08:19:00;7.00;99.90
2030;DHT22;1020;48.854;8.830;2023-04-25T08:21:27;7.00;99.90
2030;DHT22;1020;48.854;8.830;2023-04-25T08:23:54;7.00;99.90
2030;DHT22;1020;48.854;8.830;2023-04-25T08:26:22;7.00;99.90
2030;DHT22;1020;48.854;8.830;2023-04-25T08:28:49;5.60;99.90
2030;DHT22;1020;48.854;8.830;2023-04-25T08:31:17;6.90;99.90
2030;DHT22;1020;48.854;8.830;2023-04-25T08:33:44;6.80;99.90
2030;DHT22;1020;48.854;8.830;2023-04-25T08:36:11;6.70;99.90
2030;DHT22;1020;48.854;8.830;2023-04-25T08:38:38;6.70;99.90
2030;DHT22;1020;48.854;8.830;2023-04-25T08:41:05;6.80;99.90
2030;DHT22;1020;48.854;8.830;2023-04-25T08:43:33;6.70;99.90
2030;DHT22;1020;48.854;8.830;2023-04-25T08:46:01;6.60;99.90
2030;DHT22;1020;48.854;8.830;2023-04-25T08:48:32;6.40;99.90
2030;DHT22;1020;48.854;8.830;2023-04-25T08:51:01;6.40;99.90
2030;DHT22;1020;48.854;8.830;2023-04-25T08:53:30;6.40;99.90
2030;DHT22;1020;48.854;8.830;2023-04-25T08:55:59;6.40;99.90
2030;DHT22;1020;48.854;8.830;2023-04-25T08:58:27;6.40;99.90
2030;DHT22;1020;48.854;8.830;2023-04-25T09:00:54;6.40;99.90
2030;DHT22;1020;48.854;8.830;2023-04-25T09:03:20;6.30;99.90
2030;DHT22;1020;48.854;8.830;2023-04-25T09:05:49;6.20;99.90
2030;DHT22;1020;48.854;8.830;2023-04-25T09:08:16;6.30;99.90
2030;DHT22;1020;48.854;8.830;2023-04-25T09:10:43;6.30;99.90
2030;DHT22;1020;48.854;8.830;2023-04-25T09:13:11;6.20;99.90
2030;DHT22;1020;48.854;8.830;2023-04-25T09:15:47;6.20;99.90
2030;DHT22;1020;48.854;8.830;2023-04-25T09:18:22;6.10;99.90
2030;DHT22;1020;48.854;8.830;2023-04-25T09:20:52;6.10;99.90
2030;DHT22;1020;48.854;8.830;2023-04-25T09:23:20;6.10;99.90
2030;DHT22;1020;48.854;8.830;2023-04-25T09:25:48;6.00;99.90
2030;DHT22;1020;48.854;8.830;2023-04-25T09:28:15;6.10;99.90
2030;DHT22;1020;48.854;8.830;2023-04-25T09:30:42;6.10;99.90
2030;DHT22;1020;48.854;8.830;2023-04-25T09:33:10;6.20;99.90
2030;DHT22;1020;48.854;8.830;2023-04-25T09:35:39;6.00;99.90
2030;DHT22;1020;48.854;8.830;2023-04-25T09:38:11;6.10;99.90
2030;DHT22;1020;48.854;8.830;2023-04-25T09:40:41;6.10;99.90
2030;DHT22;1020;48.854;8.830;2023-04-25T09:43:09;6.00;99.90
2030;DHT22;1020;48.854;8.830;2023-04-25T09:45:41;6.00;99.90
2030;DHT22;1020;48.854;8.830;2023-04-25T09:48:11;6.10;99.90
2030;DHT22;1020;48.854;8.830;2023-04-25T09:50:38;6.10;99.90
2030;DHT22;1020;48.854;8.830;2023-04-25T09:53:06;6.20;99.90
2030;DHT22;1020;48.854;8.830;2023-04-25T09:55:34;6.20;99.90
2030;DHT22;1020;48.854;8.830;2023-04-25T09:58:04;6.20;99.90
2030;DHT22;1020;48.854;8.830;2023-04-25T10:00:32;6.20;99.90
2030;DHT22;1020;48.854;8.830;2023-04-25T10:03:01;6.10;99.90
2030;DHT22;1020;48.854;8.830;2023-04-25T10:05:30;6.20;99.90
2030;DHT22;1020;48.854;8.830;2023-04-25T10:07:59;6.20;99.90
2030;DHT22;1020;48.854;8.830;2023-04-25T10:10:30;6.20;99.90
2030;DHT22;1020;48.854;8.830;2023-04-25T10:13:06;6.20;99.90
2030;DHT22;1020;48.854;8.830;2023-04-25T10:15:35;6.40;99.90
2030;DHT22;1020;48.854;8.830;2023-04-25T10:18:03;6.60;99.90
2030;DHT22;1020;48.854;8.830;2023-04-25T10:20:30;6.60;99.90
2030;DHT22;1020;48.854;8.830;2023-04-25T10:23:02;6.50;99.90
2030;DHT22;1020;48.854;8.830;2023-04-25T10:25:30;6.30;99.90
2030;DHT22;1020;48.854;8.830;2023-04-25T10:27:59;6.40;99.90
2030;DHT22;1020;48.854;8.830;2023-04-25T10:30:27;6.60;99.90
2030;DHT22;1020;48.854;8.830;2023-04-25T10:32:55;6.60;99.90
2030;DHT22;1020;48.854;8.830;2023-04-25T10:35:25;6.60;99.90
2030;DHT22;1020;48.854;8.830;2023-04-25T10:37:57;6.70;99.90
2030;DHT22;1020;48.854;8.830;2023-04-25T10:40:25;6.70;99.90
2030;DHT22;1020;48.854;8.830;2023-04-25T10:42:52;6.90;99.90
2030;DHT22;1020;48.854;8.830;2023-04-25T10:45:20;6.80;99.90
2030;DHT22;1020;48.854;8.830;2023-04-25T10:47:48;6.90;99.90
2030;DHT22;1020;48.854;8.830;2023-04-25T10:50:15;7.00;99.90
2030;DHT22;1020;48.854;8.830;2023-04-25T10:52:42;6.90;99.90
2030;DHT22;1020;48.854;8.830;2023-04-25T10:55:10;6.80;99.90
2030;DHT22;1020;48.854;8.830;2023-04-25T10:57:39;6.80;99.90
2030;DHT22;1020;48.854;8.830;2023-04-25T11:00:20;7.00;99.90
2030;DHT22;1020;48.854;8.830;2023-04-25T11:02:57;7.00;99.90
2030;DHT22;1020;48.854;8.830;2023-04-25T11:05:30;6.90;99.90
2030;DHT22;1020;48.854;8.830;2023-04-25T11:07:58;6.80;99.90
2030;DHT22;1020;48.854;8.830;2023-04-25T11:10:25;6.90;99.90
2030;DHT22;1020;48.854;8.830;2023-04-25T11:12:52;6.80;99.90
2030;DHT22;1020;48.854;8.830;2023-04-25T11:15:19;6.70;99.90
2030;DHT22;1020;48.854;8.830;2023-04-25T11:17:46;6.50;99.90
2030;DHT22;1020;48.854;8.830;2023-04-25T11:20:14;6.20;99.90
2030;DHT22;1020;48.854;8.830;2023-04-25T11:22:42;5.90;99.90
2030;DHT22;1020;48.854;8.830;2023-04-25T11:25:12;5.80;99.90
2030;DHT22;1020;48.854;8.830;2023-04-25T11:27:49;5.90;99.90
2030;DHT22;1020;48.854;8.830;2023-04-25T11:30:17;6.00;99.90
2030;DHT22;1020;48.854;8.830;2023-04-25T11:32:44;6.00;99.90
2030;DHT22;1020;48.854;8.830;2023-04-25T11:35:11;5.90;99.90
2030;DHT22;1020;48.854;8.830;2023-04-25T11:37:40;5.90;99.90
2030;DHT22;1020;48.854;8.830;2023-04-25T11:40:08;5.90;99.90
2030;DHT22;1020;48.854;8.830;2023-04-25T11:42:37;6.10;99.90
2030;DHT22;1020;48.854;8.830;2023-04-25T11:45:05;6.30;99.90
2030;DHT22;1020;48.854;8.830;2023-04-25T11:47:33;6.30;99.90
2030;DHT22;1020;48.854;8.830;2023-04-25T11:50:00;6.30;99.90
2030;DHT22;1020;48.854;8.830;2023-04-25T11:52:40;6.80;99.90
2030;DHT22;1020;48.854;8.830;2023-04-25T11:55:08;6.70;99.90
2030;DHT22;1020;48.854;8.830;2023-04-25T11:57:36;6.50;99.90
2030;DHT22;1020;48.854;8.830;2023-04-25T12:00:09;6.50;99.90
2030;DHT22;1020;48.854;8.830;2023-04-25T12:02:41;6.60;99.90
2030;DHT22;1020;48.854;8.830;2023-04-25T12:05:08;6.40;99.90
2030;DHT22;1020;48.854;8.830;2023-04-25T12:07:36;6.60;99.90
2030;DHT22;1020;48.854;8.830;2023-04-25T12:10:09;6.80;99.90
2030;DHT22;1020;48.854;8.830;2023-04-25T12:12:36;6.90;99.90
2030;DHT22;1020;48.854;8.830;2023-04-25T12:15:11;7.00;99.90
2030;DHT22;1020;48.854;8.830;2023-04-25T12:17:40;7.20;99.90
2030;DHT22;1020;48.854;8.830;2023-04-25T12:20:08;7.70;99.90
2030;DHT22;1020;48.854;8.830;2023-04-25T12:22:35;8.40;99.90
2030;DHT22;1020;48.854;8.830;2023-04-25T12:25:03;8.90;99.90
2030;DHT22;1020;48.854;8.830;2023-04-25T12:27:32;8.80;99.90
2030;DHT22;1020;48.854;8.830;2023-04-25T12:29:59;9.00;99.90
2030;DHT22;1020;48.854;8.830;2023-04-25T12:32:26;6.20;99.90
2030;DHT22;1020;48.854;8.830;2023-04-25T12:34:52;8.70;99.90
2030;DHT22;1020;48.854;8.830;2023-04-25T12:37:19;8.50;99.90
2030;DHT22;1020;48.854;8.830;2023-04-25T12:39:46;8.30;99.90
2030;DHT22;1020;48.854;8.830;2023-04-25T12:42:13;8.10;99.90
2030;DHT22;1020;48.854;8.830;2023-04-25T12:44:41;8.00;99.90
2030;DHT22;1020;48.854;8.830;2023-04-25T12:47:08;8.20;99.90
2030;DHT22;1020;48.854;8.830;2023-04-25T12:49:34;8.10;99.90
2030;DHT22;1020;48.854;8.830;2023-04-25T12:52:01;8.30;99.90
2030;DHT22;1020;48.854;8.830;2023-04-25T12:54:28;8.30;99.90
2030;DHT22;1020;48.854;8.830;2023-04-25T12:56:55;8.60;99.90
2030;DHT22;1020;48.854;8.830;2023-04-25T12:59:22;8.60;99.90
2030;DHT22;1020;48.854;8.830;2023-04-25T13:01:50;8.80;99.90
2030;DHT22;1020;48.854;8.830;2023-04-25T13:04:17;9.20;99.90
2030;DHT22;1020;48.854;8.830;2023-04-25T13:06:45;9.30;99.90
2030;DHT22;1020;48.854;8.830;2023-04-25T13:09:12;9.00;99.90
2030;DHT22;1020;48.854;8.830;2023-04-25T13:11:39;9.10;99.90
2030;DHT22;1020;48.854;8.830;2023-04-25T13:14:06;9.40;99.90
2030;DHT22;1020;48.854;8.830;2023-04-25T13:16:33;9.70;99.90
2030;DHT22;1020;48.854;8.830;2023-04-25T13:19:01;9.70;99.90
2030;DHT22;1020;48.854;8.830;2023-04-25T13:21:30;8.70;99.90
2030;DHT22;1020;48.854;8.830;2023-04-25T13:23:57;9.90;99.90
2030;DHT22;1020;48.854;8.830;2023-04-25T13:26:24;10.30;99.90
2030;DHT22;1020;48.854;8.830;2023-04-25T13:28:51;10.40;1.00
2030;DHT22;1020;48.854;8.830;2023-04-25T13:31:18;10.70;1.00
2030;DHT22;1020;48.854;8.830;2023-04-25T13:33:44;10.50;1.00
2030;DHT22;1020;48.854;8.830;2023-04-25T13:36:13;10.40;1.00
2030;DHT22;1020;48.854;8.830;2023-04-25T13:38:40;10.10;1.00
2030;DHT22;1020;48.854;8.830;2023-04-25T13:41:09;9.70;1.00
2030;DHT22;1020;48.854;8.830;2023-04-25T13:43:36;9.80;1.00
2030;DHT22;1020;48.854;8.830;2023-04-25T13:46:03;9.80;1.00
2030;DHT22;1020;48.854;8.830;2023-04-25T13:48:30;9.90;1.00
2030;DHT22;1020;48.854;8.830;2023-04-25T13:50:57;9.90;1.00
2030;DHT22;1020;48.854;8.830;2023-04-25T13:53:25;9.70;1.00
2030;DHT22;1020;48.854;8.830;2023-04-25T13:55:52;9.80;1.00
2030;DHT22;1020;48.854;8.830;2023-04-25T13:58:19;9.80;1.00
2030;DHT22;1020;48.854;8.830;2023-04-25T14:00:46;10.10;1.00
2030;DHT22;1020;48.854;8.830;2023-04-25T14:03:13;10.40;1.00
2030;DHT22;1020;48.854;8.830;2023-04-25T14:05:40;10.30;1.00
2030;DHT22;1020;48.854;8.830;2023-04-25T14:08:07;10.20;1.00
2030;DHT22;1020;48.854;8.830;2023-04-25T14:10:36;10.10;1.00
2030;DHT22;1020;48.854;8.830;2023-04-25T14:13:03;10.00;99.90
2030;DHT22;1020;48.854;8.830;2023-04-25T14:15:31;10.10;99.90
2030;DHT22;1020;48.854;8.830;2023-04-25T14:17:58;10.30;5.00
2030;DHT22;1020;48.854;8.830;2023-04-25T14:20:25;10.40;1.00
2030;DHT22;1020;48.854;8.830;2023-04-25T14:22:52;10.40;99.90
2030;DHT22;1020;48.854;8.830;2023-04-25T14:25:20;10.60;1.00
2030;DHT22;1020;48.854;8.830;2023-04-25T14:27:48;11.00;99.90
2030;DHT22;1020;48.854;8.830;2023-04-25T14:30:16;11.40;1.00
2030;DHT22;1020;48.854;8.830;2023-04-25T14:32:43;11.30;28.70
2030;DHT22;1020;48.854;8.830;2023-04-25T14:35:10;11.20;1.00
2030;DHT22;1020;48.854;8.830;2023-04-25T14:37:37;11.00;99.90
2030;DHT22;1020;48.854;8.830;2023-04-25T14:40:05;11.20;99.90
2030;DHT22;1020;48.854;8.830;2023-04-25T14:42:34;11.00;99.90
2030;DHT22;1020;48.854;8.830;2023-04-25T14:45:03;10.70;99.90
2030;DHT22;1020;48.854;8.830;2023-04-25T14:47:30;10.80;98.70
2030;DHT22;1020;48.854;8.830;2023-04-25T14:49:57;10.80;6.00
2030;DHT22;1020;48.854;8.830;2023-04-25T14:52:24;11.20;99.90
2030;DHT22;1020;48.854;8.830;2023-04-25T14:54:51;11.20;1.00
2030;DHT22;1020;48.854;8.830;2023-04-25T14:57:18;10.90;1.00
2030;DHT22;1020;48.854;8.830;2023-04-25T14:59:45;10.60;1.00
2030;DHT22;1020;48.854;8.830;2023-04-25T15:02:13;10.70;1.00
2030;DHT22;1020;48.854;8.830;2023-04-25T15:04:40;11.20;1.00
2030;DHT22;1020;48.854;8.830;2023-04-25T15:07:07;11.80;1.00
2030;DHT22;1020;48.854;8.830;2023-04-25T15:09:34;12.20;1.00
2030;DHT22;1020;48.854;8.830;2023-04-25T15:12:02;12.40;1.00
2030;DHT22;1020;48.854;8.830;2023-04-25T15:14:29;12.40;1.00
2030;DHT22;1020;48.854;8.830;2023-04-25T15:16:56;12.30;1.00
2030;DHT22;1020;48.854;8.830;2023-04-25T15:19:24;12.30;1.00
2030;DHT22;1020;48.854;8.830;2023-04-25T15:21:51;12.20;1.00
2030;DHT22;1020;48.854;8.830;2023-04-25T15:24:18;12.20;1.00
2030;DHT22;1020;48.854;8.830;2023-04-25T15:26:45;12.10;1.00
2030;DHT22;1020;48.854;8.830;2023-04-25T15:29:12;11.90;1.00
2030;DHT22;1020;48.854;8.830;2023-04-25T15:31:39;12.00;1.00
2030;DHT22;1020;48.854;8.830;2023-04-25T15:34:05;11.80;1.00
2030;DHT22;1020;48.854;8.830;2023-04-25T15:36:33;11.10;1.00
2030;DHT22;1020;48.854;8.830;2023-04-25T15:39:00;11.20;1.00
2030;DHT22;1020;48.854;8.830;2023-04-25T15:41:28;11.40;1.00
2030;DHT22;1020;48.854;8.830;2023-04-25T15:43:55;11.40;1.00
2030;DHT22;1020;48.854;8.830;2023-04-25T15:46:22;11.30;1.00
2030;DHT22;1020;48.854;8.830;2023-04-25T15:48:49;11.20;1.00
2030;DHT22;1020;48.854;8.830;2023-04-25T15:51:16;11.00;1.00
2030;DHT22;1020;48.854;8.830;2023-04-25T15:53:44;11.20;1.00
2030;DHT22;1020;48.854;8.830;2023-04-25T15:56:11;11.50;1.00
2030;DHT22;1020;48.854;8.830;2023-04-25T15:58:38;11.70;1.00
2030;DHT22;1020;48.854;8.830;2023-04-25T16:01:05;11.50;1.00
2030;DHT22;1020;48.854;8.830;2023-04-25T16:03:32;11.60;1.00
2030;DHT22;1020;48.854;8.830;2023-04-25T16:05:59;11.70;1.00
2030;DHT22;1020;48.854;8.830;2023-04-25T16:08:26;11.80;1.00
2030;DHT22;1020;48.854;8.830;2023-04-25T16:10:55;11.80;1.00
2030;DHT22;1020;48.854;8.830;2023-04-25T16:13:22;11.80;1.00
2030;DHT22;1020;48.854;8.830;2023-04-25T16:15:49;11.90;1.00
2030;DHT22;1020;48.854;8.830;2023-04-25T16:18:16;11.90;1.00